Rio Claro, Brazil
Current Conditions -  °F | °C
As of 5:00 PM on Saturday 20 Dec 2014 (Local Time) from SBYS Reporting Station
Scattered Clouds Scattered Clouds  
Wind Chill: 90°   Ceiling: Unl
Heat Index: 93°   Visibility: 6mi
Dew Point: 68°   Wind: 7mph
Humidity: 49%   Direction: 20°NNE
Pressure: 29.83"   Gusts: NA
Location:  22.41°S, 47.56°W
Report Text: SBYS 201900Z 02006KT 9999 SCT040 SCT100 32/20 Q1010
Loading
Personal Weather Stations






























Interactive Weather Map New forecast layout! Learn more

10-Day Weather Forecast

Advertisements
Track Severe Weather on mobile